sensor_id;sensor_type;location;lat;lon;timestamp;temperature;humidity
42187;DHT22;27858;51.414;0.018;2023-06-19T04:02:34;15.30;99.90
42187;DHT22;27858;51.414;0.018;2023-06-19T04:05:01;15.30;99.90
42187;DHT22;27858;51.414;0.018;2023-06-19T04:07:28;15.30;99.90
42187;DHT22;27858;51.414;0.018;2023-06-19T04:09:55;15.30;99.90
42187;DHT22;27858;51.414;0.018;2023-06-19T04:12:21;15.30;99.90
42187;DHT22;27858;51.414;0.018;2023-06-19T04:14:48;15.20;99.90
42187;DHT22;27858;51.414;0.018;2023-06-19T04:17:15;15.30;99.90
42187;DHT22;27858;51.414;0.018;2023-06-19T04:19:42;15.30;99.90
42187;DHT22;27858;51.414;0.018;2023-06-19T04:22:09;15.30;99.90
42187;DHT22;27858;51.414;0.018;2023-06-19T04:24:36;15.30;99.90
42187;DHT22;27858;51.414;0.018;2023-06-19T04:27:04;15.30;99.90
42187;DHT22;27858;51.414;0.018;2023-06-19T04:29:31;15.30;99.90
42187;DHT22;27858;51.414;0.018;2023-06-19T04:31:58;15.30;99.90
42187;DHT22;27858;51.414;0.018;2023-06-19T04:34:25;15.30;99.90
42187;DHT22;27858;51.414;0.018;2023-06-19T04:36:52;15.40;99.90
42187;DHT22;27858;51.414;0.018;2023-06-19T04:39:19;15.40;99.90
42187;DHT22;27858;51.414;0.018;2023-06-19T04:41:46;15.40;99.90
42187;DHT22;27858;51.414;0.018;2023-06-19T04:44:12;15.40;99.90
42187;DHT22;27858;51.414;0.018;2023-06-19T04:46:40;15.40;99.90
42187;DHT22;27858;51.414;0.018;2023-06-19T04:49:07;15.50;99.90
42187;DHT22;27858;51.414;0.018;2023-06-19T04:51:35;15.60;99.90
42187;DHT22;27858;51.414;0.018;2023-06-19T04:54:02;15.60;99.90
42187;DHT22;27858;51.414;0.018;2023-06-19T04:56:29;15.60;99.90
42187;DHT22;27858;51.414;0.018;2023-06-19T04:58:56;15.60;99.90
42187;DHT22;27858;51.414;0.018;2023-06-19T05:01:26;15.70;99.90
42187;DHT22;27858;51.414;0.018;2023-06-19T05:03:57;15.70;99.90
42187;DHT22;27858;51.414;0.018;2023-06-19T05:06:24;15.70;99.90
42187;DHT22;27858;51.414;0.018;2023-06-19T05:08:51;15.80;99.90
42187;DHT22;27858;51.414;0.018;2023-06-19T05:11:18;15.70;99.90
42187;DHT22;27858;51.414;0.018;2023-06-19T05:13:45;15.80;99.90
42187;DHT22;27858;51.414;0.018;2023-06-19T05:16:12;15.80;99.90
42187;DHT22;27858;51.414;0.018;2023-06-19T05:18:42;15.80;99.90
42187;DHT22;27858;51.414;0.018;2023-06-19T05:21:10;15.90;99.90
42187;DHT22;27858;51.414;0.018;2023-06-19T05:23:40;16.00;99.90
42187;DHT22;27858;51.414;0.018;2023-06-19T05:26:07;16.00;99.90
42187;DHT22;27858;51.414;0.018;2023-06-19T05:28:34;16.00;99.90
42187;DHT22;27858;51.414;0.018;2023-06-19T05:31:01;16.10;99.90
42187;DHT22;27858;51.414;0.018;2023-06-19T05:33:28;16.10;99.90
42187;DHT22;27858;51.414;0.018;2023-06-19T05:35:55;16.20;99.90
42187;DHT22;27858;51.414;0.018;2023-06-19T05:38:22;16.20;99.90
42187;DHT22;27858;51.414;0.018;2023-06-19T05:40:51;16.20;99.90
42187;DHT22;27858;51.414;0.018;2023-06-19T05:43:18;16.20;99.90
42187;DHT22;27858;51.414;0.018;2023-06-19T05:45:45;16.20;99.90
42187;DHT22;27858;51.414;0.018;2023-06-19T05:48:12;16.30;99.90
42187;DHT22;27858;51.414;0.018;2023-06-19T05:50:38;16.30;99.90
42187;DHT22;27858;51.414;0.018;2023-06-19T05:53:05;16.40;99.90
42187;DHT22;27858;51.414;0.018;2023-06-19T05:55:32;16.40;99.90
42187;DHT22;27858;51.414;0.018;2023-06-19T05:57:59;16.50;99.90
42187;DHT22;27858;51.414;0.018;2023-06-19T06:00:26;16.50;99.90
42187;DHT22;27858;51.414;0.018;2023-06-19T06:02:53;16.60;99.90
42187;DHT22;27858;51.414;0.018;2023-06-19T06:05:20;16.70;99.90
42187;DHT22;27858;51.414;0.018;2023-06-19T06:07:47;16.60;99.90
42187;DHT22;27858;51.414;0.018;2023-06-19T06:10:14;16.80;99.90
42187;DHT22;27858;51.414;0.018;2023-06-19T06:12:41;16.80;99.90
42187;DHT22;27858;51.414;0.018;2023-06-19T06:15:08;16.80;99.90
42187;DHT22;27858;51.414;0.018;2023-06-19T06:17:35;16.90;99.90
42187;DHT22;27858;51.414;0.018;2023-06-19T06:20:02;16.90;99.90
42187;DHT22;27858;51.414;0.018;2023-06-19T06:22:34;17.00;99.90
42187;DHT22;27858;51.414;0.018;2023-06-19T06:25:01;17.10;99.90
42187;DHT22;27858;51.414;0.018;2023-06-19T06:27:27;17.10;99.90
42187;DHT22;27858;51.414;0.018;2023-06-19T06:29:54;17.10;99.90
42187;DHT22;27858;51.414;0.018;2023-06-19T06:32:21;17.20;99.90
42187;DHT22;27858;51.414;0.018;2023-06-19T06:34:48;17.20;99.90
42187;DHT22;27858;51.414;0.018;2023-06-19T06:37:15;17.30;99.90
42187;DHT22;27858;51.414;0.018;2023-06-19T06:39:44;17.40;99.90
42187;DHT22;27858;51.414;0.018;2023-06-19T06:42:10;17.50;99.90
42187;DHT22;27858;51.414;0.018;2023-06-19T06:44:37;17.50;99.90
42187;DHT22;27858;51.414;0.018;2023-06-19T06:47:04;17.60;99.90
42187;DHT22;27858;51.414;0.018;2023-06-19T06:49:31;17.60;99.90
42187;DHT22;27858;51.414;0.018;2023-06-19T06:51:57;17.70;99.90
42187;DHT22;27858;51.414;0.018;2023-06-19T06:54:24;17.80;99.90
42187;DHT22;27858;51.414;0.018;2023-06-19T06:56:51;17.80;99.90
42187;DHT22;27858;51.414;0.018;2023-06-19T06:59:22;17.90;99.90
42187;DHT22;27858;51.414;0.018;2023-06-19T07:01:49;17.90;99.90
42187;DHT22;27858;51.414;0.018;2023-06-19T07:04:16;17.90;99.90
42187;DHT22;27858;51.414;0.018;2023-06-19T07:06:43;17.80;99.90
42187;DHT22;27858;51.414;0.018;2023-06-19T07:09:10;17.90;99.90
42187;DHT22;27858;51.414;0.018;2023-06-19T07:11:36;18.10;99.90
42187;DHT22;27858;51.414;0.018;2023-06-19T07:14:03;18.00;99.90
42187;DHT22;27858;51.414;0.018;2023-06-19T07:16:30;18.10;99.90
42187;DHT22;27858;51.414;0.018;2023-06-19T07:18:57;18.10;99.90
42187;DHT22;27858;51.414;0.018;2023-06-19T07:21:24;18.20;99.90
42187;DHT22;27858;51.414;0.018;2023-06-19T07:23:50;18.20;99.90
42187;DHT22;27858;51.414;0.018;2023-06-19T07:26:17;18.40;99.90
42187;DHT22;27858;51.414;0.018;2023-06-19T07:28:44;18.40;99.90
42187;DHT22;27858;51.414;0.018;2023-06-19T07:31:11;18.50;99.90
42187;DHT22;27858;51.414;0.018;2023-06-19T07:33:38;18.40;99.90
42187;DHT22;27858;51.414;0.018;2023-06-19T07:36:05;18.50;99.90
42187;DHT22;27858;51.414;0.018;2023-06-19T07:38:32;18.70;99.90
42187;DHT22;27858;51.414;0.018;2023-06-19T07:40:58;18.70;99.90
42187;DHT22;27858;51.414;0.018;2023-06-19T07:43:25;18.80;99.90
42187;DHT22;27858;51.414;0.018;2023-06-19T07:45:52;18.70;99.90
42187;DHT22;27858;51.414;0.018;2023-06-19T07:48:19;18.80;99.90
42187;DHT22;27858;51.414;0.018;2023-06-19T07:50:46;18.80;99.90
42187;DHT22;27858;51.414;0.018;2023-06-19T07:53:12;18.90;99.90
42187;DHT22;27858;51.414;0.018;2023-06-19T07:55:40;19.00;99.90
42187;DHT22;27858;51.414;0.018;2023-06-19T07:58:07;19.00;99.90
42187;DHT22;27858;51.414;0.018;2023-06-19T08:00:34;18.90;99.90
42187;DHT22;27858;51.414;0.018;2023-06-19T08:03:02;19.10;99.90
42187;DHT22;27858;51.414;0.018;2023-06-19T08:05:29;19.00;99.90
42187;DHT22;27858;51.414;0.018;2023-06-19T08:07:56;19.00;99.90
42187;DHT22;27858;51.414;0.018;2023-06-19T08:10:27;19.10;99.90
42187;DHT22;27858;51.414;0.018;2023-06-19T08:12:55;19.30;99.90
42187;DHT22;27858;51.414;0.018;2023-06-19T08:15:21;19.30;99.90
42187;DHT22;27858;51.414;0.018;2023-06-19T08:17:48;19.30;99.90
42187;DHT22;27858;51.414;0.018;2023-06-19T08:20:15;19.20;99.90
42187;DHT22;27858;51.414;0.018;2023-06-19T08:22:42;19.40;99.90
42187;DHT22;27858;51.414;0.018;2023-06-19T08:25:09;19.30;99.90
42187;DHT22;27858;51.414;0.018;2023-06-19T08:27:36;19.40;99.90
42187;DHT22;27858;51.414;0.018;2023-06-19T08:30:03;19.40;99.90
42187;DHT22;27858;51.414;0.018;2023-06-19T08:32:30;19.60;99.90
42187;DHT22;27858;51.414;0.018;2023-06-19T08:34:57;19.70;99.90
42187;DHT22;27858;51.414;0.018;2023-06-19T08:37:24;19.70;99.90
42187;DHT22;27858;51.414;0.018;2023-06-19T08:39:51;19.70;99.90
42187;DHT22;27858;51.414;0.018;2023-06-19T08:42:18;19.70;99.90
42187;DHT22;27858;51.414;0.018;2023-06-19T08:44:45;19.70;99.90
42187;DHT22;27858;51.414;0.018;2023-06-19T08:47:12;19.90;99.90
42187;DHT22;27858;51.414;0.018;2023-06-19T08:49:39;20.20;99.90
42187;DHT22;27858;51.414;0.018;2023-06-19T08:52:06;20.10;99.90
42187;DHT22;27858;51.414;0.018;2023-06-19T08:54:34;20.20;99.90
42187;DHT22;27858;51.414;0.018;2023-06-19T08:57:09;20.10;99.90
42187;DHT22;27858;51.414;0.018;2023-06-19T08:59:36;20.10;99.90
42187;DHT22;27858;51.414;0.018;2023-06-19T09:02:03;20.10;99.90
42187;DHT22;27858;51.414;0.018;2023-06-19T09:04:30;20.20;99.90
42187;DHT22;27858;51.414;0.018;2023-06-19T09:07:03;20.50;99.90
42187;DHT22;27858;51.414;0.018;2023-06-19T09:09:31;20.40;99.90
42187;DHT22;27858;51.414;0.018;2023-06-19T09:12:04;20.40;99.90
42187;DHT22;27858;51.414;0.018;2023-06-19T09:14:35;20.40;99.90
42187;DHT22;27858;51.414;0.018;2023-06-19T09:17:07;20.40;99.90
42187;DHT22;27858;51.414;0.018;2023-06-19T09:19:37;20.40;99.90
42187;DHT22;27858;51.414;0.018;2023-06-19T09:22:08;20.50;99.90
42187;DHT22;27858;51.414;0.018;2023-06-19T09:24:36;20.40;99.90
42187;DHT22;27858;51.414;0.018;2023-06-19T09:27:13;20.50;99.90
42187;DHT22;27858;51.414;0.018;2023-06-19T09:29:41;20.60;99.90
42187;DHT22;27858;51.414;0.018;2023-06-19T09:32:24;20.70;99.90
42187;DHT22;27858;51.414;0.018;2023-06-19T09:34:55;20.50;99.90
42187;DHT22;27858;51.414;0.018;2023-06-19T09:37:28;20.60;99.90
42187;DHT22;27858;51.414;0.018;2023-06-19T09:40:00;20.80;99.90
42187;DHT22;27858;51.414;0.018;2023-06-19T09:42:32;20.80;99.90
42187;DHT22;27858;51.414;0.018;2023-06-19T09:45:04;20.70;99.90
42187;DHT22;27858;51.414;0.018;2023-06-19T09:47:45;20.60;99.90
42187;DHT22;27858;51.414;0.018;2023-06-19T09:50:16;20.80;99.90
42187;DHT22;27858;51.414;0.018;2023-06-19T09:52:44;21.10;99.90
42187;DHT22;27858;51.414;0.018;2023-06-19T09:55:13;21.20;99.90
42187;DHT22;27858;51.414;0.018;2023-06-19T09:57:41;21.40;99.90
42187;DHT22;27858;51.414;0.018;2023-06-19T10:00:10;21.50;99.90
42187;DHT22;27858;51.414;0.018;2023-06-19T10:02:39;21.50;99.90
42187;DHT22;27858;51.414;0.018;2023-06-19T10:05:06;21.70;99.90
42187;DHT22;27858;51.414;0.018;2023-06-19T10:07:36;21.60;99.90
42187;DHT22;27858;51.414;0.018;2023-06-19T10:10:11;21.80;99.90
42187;DHT22;27858;51.414;0.018;2023-06-19T10:12:44;22.00;99.90
42187;DHT22;27858;51.414;0.018;2023-06-19T10:17:48;22.40;99.90
42187;DHT22;27858;51.414;0.018;2023-06-19T10:20:42;22.60;99.90
42187;DHT22;27858;51.414;0.018;2023-06-19T10:23:16;22.80;99.90
42187;DHT22;27858;51.414;0.018;2023-06-19T10:25:47;22.70;83.30
42187;DHT22;27858;51.414;0.018;2023-06-19T10:28:25;22.70;89.10
42187;DHT22;27858;51.414;0.018;2023-06-19T10:30:56;22.60;92.90
42187;DHT22;27858;51.414;0.018;2023-06-19T10:33:29;22.70;99.90
42187;DHT22;27858;51.414;0.018;2023-06-19T10:35:58;22.60;99.70
42187;DHT22;27858;51.414;0.018;2023-06-19T10:38:26;22.60;86.80
42187;DHT22;27858;51.414;0.018;2023-06-19T10:40:53;22.70;69.30
42187;DHT22;27858;51.414;0.018;2023-06-19T10:43:24;22.70;53.10
42187;DHT22;27858;51.414;0.018;2023-06-19T10:45:54;22.70;47.90
42187;DHT22;27858;51.414;0.018;2023-06-19T10:48:23;22.70;29.00
42187;DHT22;27858;51.414;0.018;2023-06-19T10:50:51;22.20;41.20
42187;DHT22;27858;51.414;0.018;2023-06-19T10:53:31;22.20;65.30
42187;DHT22;27858;51.414;0.018;2023-06-19T10:55:59;22.30;56.50
42187;DHT22;27858;51.414;0.018;2023-06-19T10:58:28;22.30;50.00
42187;DHT22;27858;51.414;0.018;2023-06-19T11:00:55;22.50;70.20
42187;DHT22;27858;51.414;0.018;2023-06-19T11:03:23;22.40;45.80
42187;DHT22;27858;51.414;0.018;2023-06-19T11:05:50;22.60;47.20
42187;DHT22;27858;51.414;0.018;2023-06-19T11:08:21;22.60;44.40
42187;DHT22;27858;51.414;0.018;2023-06-19T11:10:50;22.40;46.90
42187;DHT22;27858;51.414;0.018;2023-06-19T11:13:18;22.80;36.70
42187;DHT22;27858;51.414;0.018;2023-06-19T11:15:47;22.70;28.80
42187;DHT22;27858;51.414;0.018;2023-06-19T11:18:17;22.70;41.40
42187;DHT22;27858;51.414;0.018;2023-06-19T11:20:50;22.80;29.40
42187;DHT22;27858;51.414;0.018;2023-06-19T11:23:27;22.90;17.10
42187;DHT22;27858;51.414;0.018;2023-06-19T11:25:54;23.00;18.10
42187;DHT22;27858;51.414;0.018;2023-06-19T11:28:26;23.00;8.30
42187;DHT22;27858;51.414;0.018;2023-06-19T11:31:01;22.90;17.20
42187;DHT22;27858;51.414;0.018;2023-06-19T11:33:30;23.00;22.40
42187;DHT22;27858;51.414;0.018;2023-06-19T11:36:00;23.00;11.90
42187;DHT22;27858;51.414;0.018;2023-06-19T11:38:27;23.00;25.90
42187;DHT22;27858;51.414;0.018;2023-06-19T11:40:55;23.40;20.10
42187;DHT22;27858;51.414;0.018;2023-06-19T11:43:32;23.50;6.50
42187;DHT22;27858;51.414;0.018;2023-06-19T11:46:05;23.40;10.00
42187;DHT22;27858;51.414;0.018;2023-06-19T11:48:37;23.40;10.70
42187;DHT22;27858;51.414;0.018;2023-06-19T11:51:03;23.40;1.00
42187;DHT22;27858;51.414;0.018;2023-06-19T11:53:30;23.70;1.00
42187;DHT22;27858;51.414;0.018;2023-06-19T11:55:57;23.70;1.00
42187;DHT22;27858;51.414;0.018;2023-06-19T11:58:24;23.20;1.00
42187;DHT22;27858;51.414;0.018;2023-06-19T12:00:50;23.50;3.20
42187;DHT22;27858;51.414;0.018;2023-06-19T12:03:17;23.30;1.00
42187;DHT22;27858;51.414;0.018;2023-06-19T12:05:44;23.30;4.60
42187;DHT22;27858;51.414;0.018;2023-06-19T12:08:11;23.30;19.00
42187;DHT22;27858;51.414;0.018;2023-06-19T12:10:44;23.10;9.30
42187;DHT22;27858;51.414;0.018;2023-06-19T12:13:10;23.50;13.80
42187;DHT22;27858;51.414;0.018;2023-06-19T12:15:37;23.90;1.00
42187;DHT22;27858;51.414;0.018;2023-06-19T12:18:04;24.10;1.00
42187;DHT22;27858;51.414;0.018;2023-06-19T12:20:33;24.10;1.00
42187;DHT22;27858;51.414;0.018;2023-06-19T12:23:00;23.70;1.00
42187;DHT22;27858;51.414;0.018;2023-06-19T12:25:27;23.80;1.00
42187;DHT22;27858;51.414;0.018;2023-06-19T12:27:54;23.70;1.00
42187;DHT22;27858;51.414;0.018;2023-06-19T12:30:21;24.20;1.00
42187;DHT22;27858;51.414;0.018;2023-06-19T12:32:49;24.20;1.00
42187;DHT22;27858;51.414;0.018;2023-06-19T12:35:16;24.40;1.00
42187;DHT22;27858;51.414;0.018;2023-06-19T12:37:44;24.50;1.00
42187;DHT22;27858;51.414;0.018;2023-06-19T12:40:12;24.30;1.00
42187;DHT22;27858;51.414;0.018;2023-06-19T12:42:38;24.30;1.00
42187;DHT22;27858;51.414;0.018;2023-06-19T12:45:06;23.90;1.00
42187;DHT22;27858;51.414;0.018;2023-06-19T12:47:33;24.00;1.00
42187;DHT22;27858;51.414;0.018;2023-06-19T12:49:59;24.10;1.00
42187;DHT22;27858;51.414;0.018;2023-06-19T12:52:27;24.50;99.90
42187;DHT22;27858;51.414;0.018;2023-06-19T12:54:54;24.50;99.90
42187;DHT22;27858;51.414;0.018;2023-06-19T12:57:20;24.20;1.00
42187;DHT22;27858;51.414;0.018;2023-06-19T12:59:48;24.30;1.00
42187;DHT22;27858;51.414;0.018;2023-06-19T13:02:14;24.20;1.00
42187;DHT22;27858;51.414;0.018;2023-06-19T13:04:41;24.50;1.00
42187;DHT22;27858;51.414;0.018;2023-06-19T13:07:08;24.60;99.90
42187;DHT22;27858;51.414;0.018;2023-06-19T13:09:35;24.40;99.90
42187;DHT22;27858;51.414;0.018;2023-06-19T13:12:02;24.90;99.90
42187;DHT22;27858;51.414;0.018;2023-06-19T13:14:29;24.90;99.90
42187;DHT22;27858;51.414;0.018;2023-06-19T13:16:58;25.20;99.90
42187;DHT22;27858;51.414;0.018;2023-06-19T13:19:25;25.40;99.90
42187;DHT22;27858;51.414;0.018;2023-06-19T13:21:52;25.10;99.90
42187;DHT22;27858;51.414;0.018;2023-06-19T13:24:19;25.20;99.90
42187;DHT22;27858;51.414;0.018;2023-06-19T13:26:46;25.10;99.90
42187;DHT22;27858;51.414;0.018;2023-06-19T13:29:13;25.00;99.90
42187;DHT22;27858;51.414;0.018;2023-06-19T13:31:40;25.50;99.90
42187;DHT22;27858;51.414;0.018;2023-06-19T13:34:06;25.70;99.90
42187;DHT22;27858;51.414;0.018;2023-06-19T13:36:33;26.20;99.90
42187;DHT22;27858;51.414;0.018;2023-06-19T13:39:00;25.60;99.90
42187;DHT22;27858;51.414;0.018;2023-06-19T13:41:27;25.80;99.90
42187;DHT22;27858;51.414;0.018;2023-06-19T13:43:54;25.70;99.90
42187;DHT22;27858;51.414;0.018;2023-06-19T13:46:21;25.70;99.90
42187;DHT22;27858;51.414;0.018;2023-06-19T13:48:49;26.10;99.90
42187;DHT22;27858;51.414;0.018;2023-06-19T13:51:19;26.40;99.90
42187;DHT22;27858;51.414;0.018;2023-06-19T13:53:47;26.20;99.90
42187;DHT22;27858;51.414;0.018;2023-06-19T13:56:14;26.00;99.90
42187;DHT22;27858;51.414;0.018;2023-06-19T13:58:42;26.50;99.90
42187;DHT22;27858;51.414;0.018;2023-06-19T14:01:09;26.40;99.90
42187;DHT22;27858;51.414;0.018;2023-06-19T14:03:39;26.20;99.90
42187;DHT22;27858;51.414;0.018;2023-06-19T14:06:06;26.30;99.90
42187;DHT22;27858;51.414;0.018;2023-06-19T14:08:33;27.00;99.90
42187;DHT22;27858;51.414;0.018;2023-06-19T14:11:01;27.00;99.90
42187;DHT22;27858;51.414;0.018;2023-06-19T14:13:28;27.20;99.90
42187;DHT22;27858;51.414;0.018;2023-06-19T14:15:55;26.80;99.90
42187;DHT22;27858;51.414;0.018;2023-06-19T14:18:21;26.80;99.90
42187;DHT22;27858;51.414;0.018;2023-06-19T14:20:48;27.30;99.90
42187;DHT22;27858;51.414;0.018;2023-06-19T14:23:15;26.60;99.90
42187;DHT22;27858;51.414;0.018;2023-06-19T14:25:42;26.10;99.90
42187;DHT22;27858;51.414;0.018;2023-06-19T14:28:10;27.00;99.90
42187;DHT22;27858;51.414;0.018;2023-06-19T14:30:37;27.60;99.90
42187;DHT22;27858;51.414;0.018;2023-06-19T14:33:05;27.80;99.90
42187;DHT22;27858;51.414;0.018;2023-06-19T14:35:32;27.30;99.90
42187;DHT22;27858;51.414;0.018;2023-06-19T14:37:59;27.20;99.90
42187;DHT22;27858;51.414;0.018;2023-06-19T14:40:26;26.70;99.90
42187;DHT22;27858;51.414;0.018;2023-06-19T14:42:53;26.80;99.90
42187;DHT22;27858;51.414;0.018;2023-06-19T14:45:20;26.80;99.90
42187;DHT22;27858;51.414;0.018;2023-06-19T14:47:46;27.30;99.90
42187;DHT22;27858;51.414;0.018;2023-06-19T14:50:14;28.20;99.90
42187;DHT22;27858;51.414;0.018;2023-06-19T14:52:40;27.80;99.90
42187;DHT22;27858;51.414;0.018;2023-06-19T14:55:09;27.60;99.90
42187;DHT22;27858;51.414;0.018;2023-06-19T14:57:36;27.10;99.90
42187;DHT22;27858;51.414;0.018;2023-06-19T15:00:04;27.40;99.90
42187;DHT22;27858;51.414;0.018;2023-06-19T15:02:32;27.90;99.90
42187;DHT22;27858;51.414;0.018;2023-06-19T15:05:00;28.30;99.90
42187;DHT22;27858;51.414;0.018;2023-06-19T15:07:33;28.80;99.90
42187;DHT22;27858;51.414;0.018;2023-06-19T15:09:59;29.10;99.90
42187;DHT22;27858;51.414;0.018;2023-06-19T15:12:26;28.60;99.90
42187;DHT22;27858;51.414;0.018;2023-06-19T15:14:53;28.70;99.90
42187;DHT22;27858;51.414;0.018;2023-06-19T15:17:20;29.30;99.90
42187;DHT22;27858;51.414;0.018;2023-06-19T15:19:47;29.60;99.90
42187;DHT22;27858;51.414;0.018;2023-06-19T15:22:14;29.00;99.90
42187;DHT22;27858;51.414;0.018;2023-06-19T15:24:41;29.00;99.90
42187;DHT22;27858;51.414;0.018;2023-06-19T15:27:08;29.00;99.90
42187;DHT22;27858;51.414;0.018;2023-06-19T15:29:35;29.30;99.90
42187;DHT22;27858;51.414;0.018;2023-06-19T15:32:03;29.80;99.90
42187;DHT22;27858;51.414;0.018;2023-06-19T15:34:30;29.50;99.90
42187;DHT22;27858;51.414;0.018;2023-06-19T15:36:57;29.20;99.90
42187;DHT22;27858;51.414;0.018;2023-06-19T15:39:25;28.60;99.90
42187;DHT22;27858;51.414;0.018;2023-06-19T15:41:52;29.50;99.90
42187;DHT22;27858;51.414;0.018;2023-06-19T15:44:18;29.40;99.90
42187;DHT22;27858;51.414;0.018;2023-06-19T15:46:45;30.40;99.90
42187;DHT22;27858;51.414;0.018;2023-06-19T15:49:12;29.80;99.90
42187;DHT22;27858;51.414;0.018;2023-06-19T15:51:41;30.70;99.90
42187;DHT22;27858;51.414;0.018;2023-06-19T15:54:08;31.10;99.90
42187;DHT22;27858;51.414;0.018;2023-06-19T15:56:35;31.70;99.90
42187;DHT22;27858;51.414;0.018;2023-06-19T15:59:02;31.40;99.90
42187;DHT22;27858;51.414;0.018;2023-06-19T16:01:29;29.60;99.90
42187;DHT22;27858;51.414;0.018;2023-06-19T16:03:55;29.40;99.90
42187;DHT22;27858;51.414;0.018;2023-06-19T16:06:22;29.60;99.90
42187;DHT22;27858;51.414;0.018;2023-06-19T16:08:49;29.30;99.90
42187;DHT22;27858;51.414;0.018;2023-06-19T16:11:18;28.70;99.90
42187;DHT22;27858;51.414;0.018;2023-06-19T16:13:45;28.40;99.90
42187;DHT22;27858;51.414;0.018;2023-06-19T16:16:11;29.00;99.90
42187;DHT22;27858;51.414;0.018;2023-06-19T16:18:38;28.60;99.90
42187;DHT22;27858;51.414;0.018;2023-06-19T16:21:05;28.50;99.90
42187;DHT22;27858;51.414;0.018;2023-06-19T16:23:32;27.90;99.90
42187;DHT22;27858;51.414;0.018;2023-06-19T16:25:58;28.30;99.90
42187;DHT22;27858;51.414;0.018;2023-06-19T16:28:25;28.50;99.90
42187;DHT22;27858;51.414;0.018;2023-06-19T16:30:55;29.20;99.90
42187;DHT22;27858;51.414;0.018;2023-06-19T16:33:22;29.10;99.90
42187;DHT22;27858;51.414;0.018;2023-06-19T16:35:48;30.00;99.90
42187;DHT22;27858;51.414;0.018;2023-06-19T16:38:15;29.50;99.90
42187;DHT22;27858;51.414;0.018;2023-06-19T16:40:43;30.00;99.90
42187;DHT22;27858;51.414;0.018;2023-06-19T16:43:09;30.90;99.90
42187;DHT22;27858;51.414;0.018;2023-06-19T16:45:36;30.60;99.90
42187;DHT22;27858;51.414;0.018;2023-06-19T16:48:03;29.60;99.90
42187;DHT22;27858;51.414;0.018;2023-06-19T16:50:30;30.30;99.90
42187;DHT22;27858;51.414;0.018;2023-06-19T16:52:57;29.00;99.90
42187;DHT22;27858;51.414;0.018;2023-06-19T16:55:25;28.60;99.90
42187;DHT22;27858;51.414;0.018;2023-06-19T16:57:52;28.90;99.90
42187;DHT22;27858;51.414;0.018;2023-06-19T17:00:19;28.50;99.90
42187;DHT22;27858;51.414;0.018;2023-06-19T17:02:46;29.20;99.90
42187;DHT22;27858;51.414;0.018;2023-06-19T17:05:14;28.60;99.90
42187;DHT22;27858;51.414;0.018;2023-06-19T17:07:41;28.60;99.90
42187;DHT22;27858;51.414;0.018;2023-06-19T17:10:08;28.50;99.90
42187;DHT22;27858;51.414;0.018;2023-06-19T17:12:35;29.00;99.90
42187;DHT22;27858;51.414;0.018;2023-06-19T17:15:02;29.30;99.90
42187;DHT22;27858;51.414;0.018;2023-06-19T17:17:29;29.10;99.90
42187;DHT22;27858;51.414;0.018;2023-06-19T17:19:58;28.80;99.90
42187;DHT22;27858;51.414;0.018;2023-06-19T17:22:25;29.20;99.90
42187;DHT22;27858;51.414;0.018;2023-06-19T17:24:52;28.40;99.90
42187;DHT22;27858;51.414;0.018;2023-06-19T17:27:19;28.70;99.90
42187;DHT22;27858;51.414;0.018;2023-06-19T17:29:45;29.40;99.90
42187;DHT22;27858;51.414;0.018;2023-06-19T17:32:12;29.70;99.90
42187;DHT22;27858;51.414;0.018;2023-06-19T17:34:39;30.30;99.90
42187;DHT22;27858;51.414;0.018;2023-06-19T17:37:06;29.60;99.90
42187;DHT22;27858;51.414;0.018;2023-06-19T17:39:32;29.40;99.90
42187;DHT22;27858;51.414;0.018;2023-06-19T17:41:59;29.00;99.90
42187;DHT22;27858;51.414;0.018;2023-06-19T17:44:26;29.70;99.90
42187;DHT22;27858;51.414;0.018;2023-06-19T17:46:56;29.30;99.90
42187;DHT22;27858;51.414;0.018;2023-06-19T17:49:23;29.20;99.90
42187;DHT22;27858;51.414;0.018;2023-06-19T17:51:49;28.80;99.90
42187;DHT22;27858;51.414;0.018;2023-06-19T17:54:16;28.30;99.90
42187;DHT22;27858;51.414;0.018;2023-06-19T17:56:43;28.80;99.90
42187;DHT22;27858;51.414;0.018;2023-06-19T17:59:12;28.70;99.90
42187;DHT22;27858;51.414;0.018;2023-06-19T18:01:39;29.50;99.90
42187;DHT22;27858;51.414;0.018;2023-06-19T18:04:06;30.10;99.90
42187;DHT22;27858;51.414;0.018;2023-06-19T18:06:33;30.40;99.90
42187;DHT22;27858;51.414;0.018;2023-06-19T18:09:00;30.30;99.90
42187;DHT22;27858;51.414;0.018;2023-06-19T18:11:31;30.40;99.90
42187;DHT22;27858;51.414;0.018;2023-06-19T18:13:57;29.60;99.90
42187;DHT22;27858;51.414;0.018;2023-06-19T18:16:24;30.10;99.90
42187;DHT22;27858;51.414;0.018;2023-06-19T18:18:51;29.80;99.90
42187;DHT22;27858;51.414;0.018;2023-06-19T18:21:18;29.40;99.90
42187;DHT22;27858;51.414;0.018;2023-06-19T18:23:44;28.70;99.90
42187;DHT22;27858;51.414;0.018;2023-06-19T18:26:11;27.30;99.90
42187;DHT22;27858;51.414;0.018;2023-06-19T18:28:38;27.30;99.90
42187;DHT22;27858;51.414;0.018;2023-06-19T18:31:05;26.70;99.90
42187;DHT22;27858;51.414;0.018;2023-06-19T18:33:32;26.70;99.90
42187;DHT22;27858;51.414;0.018;2023-06-19T18:35:58;26.50;99.90
42187;DHT22;27858;51.414;0.018;2023-06-19T18:38:25;26.40;99.90
42187;DHT22;27858;51.414;0.018;2023-06-19T18:40:52;26.20;99.90
42187;DHT22;27858;51.414;0.018;2023-06-19T18:43:19;26.10;99.90
42187;DHT22;27858;51.414;0.018;2023-06-19T18:45:46;25.90;99.90
42187;DHT22;27858;51.414;0.018;2023-06-19T18:48:12;25.70;99.90
42187;DHT22;27858;51.414;0.018;2023-06-19T18:50:39;25.30;99.90
42187;DHT22;27858;51.414;0.018;2023-06-19T18:53:07;25.00;99.90
42187;DHT22;27858;51.414;0.018;2023-06-19T18:55:33;25.00;99.90
42187;DHT22;27858;51.414;0.018;2023-06-19T18:58:04;24.80;99.90
42187;DHT22;27858;51.414;0.018;2023-06-19T19:00:31;24.60;99.90
42187;DHT22;27858;51.414;0.018;2023-06-19T19:02:59;24.50;99.90
42187;DHT22;27858;51.414;0.018;2023-06-19T19:05:25;24.30;99.90
42187;DHT22;27858;51.414;0.018;2023-06-19T19:07:52;24.20;99.90
42187;DHT22;27858;51.414;0.018;2023-06-19T19:10:19;24.00;99.90
42187;DHT22;27858;51.414;0.018;2023-06-19T19:12:46;24.20;99.90
42187;DHT22;27858;51.414;0.018;2023-06-19T19:15:13;24.10;99.90
42187;DHT22;27858;51.414;0.018;2023-06-19T19:17:39;24.00;99.90
42187;DHT22;27858;51.414;0.018;2023-06-19T19:20:07;23.90;99.90
42187;DHT22;27858;51.414;0.018;2023-06-19T19:22:35;23.60;99.90
42187;DHT22;27858;51.414;0.018;2023-06-19T19:25:02;23.40;99.90
42187;DHT22;27858;51.414;0.018;2023-06-19T19:27:29;23.40;99.90
42187;DHT22;27858;51.414;0.018;2023-06-19T19:30:00;23.40;99.90
42187;DHT22;27858;51.414;0.018;2023-06-19T19:32:27;23.10;99.90
42187;DHT22;27858;51.414;0.018;2023-06-19T19:34:54;23.20;99.90
42187;DHT22;27858;51.414;0.018;2023-06-19T19:37:23;23.20;99.90
42187;DHT22;27858;51.414;0.018;2023-06-19T19:39:50;23.30;99.90